Current Weather

Gerald R Ford Intl

Grand Rapids, Michigan (KGRR)

Report from: Friday, February 23, 2024 3:53 PM EST
Current time: Friday, February 23, 2024 4:16 PM EST

Nearby weather – Weather history – Daily summaries
Weather forecast

Temperature4.4°C (39.9°F)
Wind chill0.8°C (33.4°F)
Dew point-2.2°C (28.0°F)
Winds 9 kts (4.6 m/s, 10.4 mph) North (360°)
Visibility10 mi. (16.1 km)
Clouds Ceiling: Broken clouds 3,200 ft. (975 m)
Broken clouds 3,900 ft. (1,189 m)
Broken clouds 20,000 ft. (6,096 m)
Altimeter29.68 in.Hg (1005 mB)
Relative humidity62 %
Density altitude-941 ft. (-287 m)
Sea-level pressure100.6 kPa (1006 mB, 29.70 in.Hg)
Remarks System requires maintenance
Automated weather observing station with precipitation discriminator
Pressure rising more quickly
Flight conditions Visual Meteorological Conditions
Raw dataKGRR 232053Z 36009KT 10SM BKN032 BKN039 BKN200 04/M02 A2968 RMK AO2 SLP056 T00441022 53009 $
An error has occurred. This application may no longer respond until reloaded. Reload 🗙